Decoded Metar for KD95 ( in ) (IATA:) | Meteo·Mobile Aviation Weather
aviador You're here:

KD95 Decoded Metar

in
Report Time2019-03-22 13:56:00
UTC Time2019-03-22 14:20:49
Flight Rules mvfr MVFR
Wind360° at 10 Gusting to 17 kt
Visibility9999 m
Phenomena:N/A
Clouds:Broken 019 Hf
Overcast 025 Hf
Expected CloudBase > 1,200 ft AGL from Temp-Dew spread
Ceiling1,900 ft
Temp02°C
Dew Point-1°C (81% RH)
AAT-3.7°C
QNH1010 hPa
Raw Report
KD95 221356Z AUTO 36010G17KT 10SM BKN019 OVC025 02/M01 A2984 RMK
AO2 T00171007=

Extra information for KD95:More info

Social comments